Time;durP1;ratioP1;P1;durP2;ratioP2;P2;SDS_P1;SDS_P2;PMS_P1;PMS_P2;Temp;Humidity;BMP_temperature;BMP_pressure;BME280_temperature;BME280_humidity;BME280_pressure;Samples;Min_cycle;Max_cycle;Signal;HPM_P1;HPM_P2
2023/04/13 00:02:22;;;;;;;1.08;1.00;;;7.30;99.90;;;;;;6270721;28;20419;-81
2023/04/13 00:05:25;;;;;;;2.20;0.80;;;7.30;99.90;;;;;;6264911;28;20060;-82
2023/04/13 00:08:29;;;;;;;1.30;1.20;;;7.30;99.90;;;;;;6267189;28;20047;-83
2023/04/13 00:11:31;;;;;;;1.73;1.30;;;7.30;99.90;;;;;;6269446;28;20040;-81
2023/04/13 00:14:32;;;;;;;6.85;1.30;;;7.30;99.90;;;;;;6270275;28;20052;-81
2023/04/13 00:17:34;;;;;;;1.90;1.13;;;7.20;99.90;;;;;;6270339;28;20049;-82
2023/04/13 00:20:37;;;;;;;1.27;1.05;;;7.30;99.90;;;;;;6264946;28;20061;-82
2023/04/13 00:23:39;;;;;;;3.30;1.05;;;7.30;99.90;;;;;;6272646;28;20041;-82
2023/04/13 00:26:41;;;;;;;1.63;0.98;;;7.20;99.90;;;;;;6268026;28;20059;-81
2023/04/13 00:29:43;;;;;;;1.67;1.00;;;7.20;99.90;;;;;;6266676;28;20064;-81
2023/04/13 00:32:45;;;;;;;2.65;1.77;;;7.20;99.90;;;;;;6271934;28;20044;-82
2023/04/13 00:35:47;;;;;;;2.03;1.00;;;7.20;99.90;;;;;;6268397;28;20415;-80
2023/04/13 00:38:53;;;;;;;3.83;1.55;;;7.10;99.90;;;;;;6265764;28;20048;-81
2023/04/13 00:41:55;;;;;;;2.13;1.02;;;7.10;99.90;;;;;;6269080;28;20072;-83
2023/04/13 00:44:56;;;;;;;3.95;1.30;;;7.10;99.90;;;;;;6272706;28;20048;-82
2023/04/13 00:47:58;;;;;;;2.05;1.25;;;7.20;99.90;;;;;;6267220;28;20041;-80
2023/04/13 00:51:01;;;;;;;10.90;2.40;;;7.20;99.90;;;;;;6268476;28;20041;-81
2023/04/13 00:54:04;;;;;;;2.47;1.10;;;7.20;99.90;;;;;;6272761;28;20575;-81
2023/04/13 00:57:07;;;;;;;3.92;0.93;;;7.20;99.90;;;;;;6269396;28;20056;-81
2023/04/13 01:00:10;;;;;;;1.50;1.40;;;7.10;99.90;;;;;;6270087;28;20054;-80
2023/04/13 01:03:12;;;;;;;4.03;1.30;;;7.10;99.90;;;;;;6269937;28;20397;-82
2023/04/13 01:06:21;;;;;;;3.72;1.00;;;7.10;99.90;;;;;;6270323;28;20453;-82
2023/04/13 01:09:32;;;;;;;2.55;1.48;;;7.00;99.90;;;;;;6269677;28;20052;-82
2023/04/13 01:12:41;;;;;;;5.10;1.27;;;7.00;99.90;;;;;;6267436;28;20120;-81
2023/04/13 01:15:51;;;;;;;1.33;1.00;;;7.00;99.90;;;;;;6266030;28;20056;-82
2023/04/13 01:18:53;;;;;;;4.65;1.48;;;6.90;99.90;;;;;;6262156;28;20403;-81
2023/04/13 01:21:56;;;;;;;1.15;0.98;;;6.80;99.90;;;;;;6266153;28;20472;-80
2023/04/13 01:25:17;;;;;;;2.40;1.33;;;6.80;99.90;;;;;;6264935;28;20072;-80
2023/04/13 01:28:22;;;;;;;2.60;1.35;;;6.90;99.90;;;;;;6265835;28;20052;-82
2023/04/13 01:31:24;;;;;;;3.45;1.05;;;6.90;99.90;;;;;;6262416;28;20045;-82
2023/04/13 01:34:26;;;;;;;1.42;1.33;;;7.00;99.90;;;;;;6266907;28;20075;-80
2023/04/13 01:37:28;;;;;;;3.30;1.20;;;7.00;99.90;;;;;;6265688;28;20052;-81
2023/04/13 01:40:31;;;;;;;1.05;0.95;;;7.10;99.90;;;;;;6262888;28;20492;-81
2023/04/13 01:43:35;;;;;;;6.13;1.35;;;7.20;99.90;;;;;;6258265;28;20045;-81
2023/04/13 01:46:38;;;;;;;1.23;0.90;;;7.20;99.90;;;;;;6267787;28;20151;-81
2023/04/13 01:49:42;;;;;;;4.78;2.45;;;7.30;99.90;;;;;;6263995;28;20147;-81
2023/04/13 01:52:44;;;;;;;1.30;1.15;;;7.30;99.90;;;;;;6264854;28;20398;-82
2023/04/13 01:55:47;;;;;;;4.50;1.10;;;7.40;99.90;;;;;;6259408;28;20052;-82
2023/04/13 01:58:55;;;;;;;1.17;0.90;;;7.40;99.90;;;;;;6266110;28;20075;-83
2023/04/13 02:01:59;;;;;;;3.78;1.30;;;7.50;99.90;;;;;;6264249;28;20488;-81
2023/04/13 02:05:01;;;;;;;1.08;0.77;;;7.50;99.90;;;;;;6266889;28;20040;-81
2023/04/13 02:08:04;;;;;;;2.88;0.93;;;7.50;99.90;;;;;;6262333;28;20522;-81
2023/04/13 02:11:06;;;;;;;1.30;1.08;;;7.50;99.90;;;;;;6269302;28;20045;-81
2023/04/13 02:14:09;;;;;;;4.03;1.20;;;7.60;99.90;;;;;;6267353;28;20052;-82
2023/04/13 02:17:11;;;;;;;3.58;1.02;;;7.60;99.90;;;;;;6266906;28;20060;-81
2023/04/13 02:20:12;;;;;;;1.75;0.93;;;7.60;99.90;;;;;;6270194;28;20052;-81
2023/04/13 02:23:14;;;;;;;1.75;1.00;;;7.60;99.90;;;;;;6266836;28;20059;-83
2023/04/13 02:26:17;;;;;;;2.42;1.20;;;7.70;99.90;;;;;;6264592;28;20072;-82
2023/04/13 02:29:20;;;;;;;2.08;1.10;;;7.70;99.90;;;;;;6268009;28;20045;-82
2023/04/13 02:32:23;;;;;;;1.42;1.00;;;7.70;99.90;;;;;;6267576;28;20045;-82
2023/04/13 02:35:26;;;;;;;6.13;1.30;;;7.80;99.90;;;;;;6265996;28;20372;-81
2023/04/13 02:38:28;;;;;;;5.28;1.33;;;7.80;99.90;;;;;;6267090;28;20052;-80
2023/04/13 02:41:29;;;;;;;6.03;1.30;;;7.80;99.90;;;;;;6270596;28;20056;-81
2023/04/13 02:44:33;;;;;;;2.00;1.02;;;7.80;99.90;;;;;;6267365;28;20033;-81
2023/04/13 02:47:35;;;;;;;6.82;1.90;;;7.80;99.90;;;;;;6268091;28;20053;-80
2023/04/13 02:50:37;;;;;;;1.90;1.17;;;7.90;99.90;;;;;;6264475;28;20049;-81
2023/04/13 02:53:38;;;;;;;2.65;1.23;;;7.90;99.90;;;;;;6266022;28;20053;-81
2023/04/13 02:56:40;;;;;;;1.63;0.88;;;8.00;99.90;;;;;;6268266;28;20049;-81
2023/04/13 02:59:43;;;;;;;3.83;1.40;;;8.00;99.90;;;;;;6283643;28;20041;-81
2023/04/13 03:02:45;;;;;;;2.08;1.20;;;8.00;99.90;;;;;;6267377;28;20055;-81
2023/04/13 03:05:49;;;;;;;2.05;1.52;;;8.00;99.90;;;;;;6275378;28;20052;-81
2023/04/13 03:08:51;;;;;;;2.70;1.15;;;8.00;99.90;;;;;;6274027;28;20053;-81
2023/04/13 03:11:55;;;;;;;1.75;1.08;;;8.00;99.90;;;;;;6272931;28;20052;-82
2023/04/13 03:15:00;;;;;;;8.60;1.27;;;8.00;99.90;;;;;;6272441;28;20037;-83
2023/04/13 03:18:03;;;;;;;3.63;1.63;;;8.00;99.90;;;;;;6268924;28;20045;-82
2023/04/13 03:21:05;;;;;;;2.15;1.20;;;8.00;99.90;;;;;;6268269;28;20115;-82
2023/04/13 03:24:08;;;;;;;4.57;1.40;;;8.00;99.90;;;;;;6268067;28;20669;-82
2023/04/13 03:27:09;;;;;;;7.40;1.58;;;8.00;99.90;;;;;;6269373;28;20550;-82
2023/04/13 03:30:13;;;;;;;2.17;1.33;;;8.00;99.90;;;;;;6264687;28;20389;-80
2023/04/13 03:33:15;;;;;;;1.17;1.00;;;8.00;99.90;;;;;;6267743;28;20052;-81
2023/04/13 03:36:17;;;;;;;3.35;1.05;;;8.00;99.90;;;;;;6263952;28;20060;-80
2023/04/13 03:39:18;;;;;;;1.92;1.38;;;8.00;99.90;;;;;;6262822;28;20052;-81
2023/04/13 03:42:20;;;;;;;3.95;1.00;;;8.00;99.90;;;;;;6268353;28;20114;-81
2023/04/13 03:45:23;;;;;;;1.63;1.02;;;8.00;99.90;;;;;;6267209;28;20230;-82
2023/04/13 03:48:25;;;;;;;1.85;0.90;;;8.00;99.90;;;;;;6266242;28;20071;-82
2023/04/13 03:51:27;;;;;;;4.07;1.90;;;8.00;99.90;;;;;;6265610;28;20502;-82
2023/04/13 03:54:29;;;;;;;3.13;1.27;;;8.10;99.90;;;;;;6265915;28;20092;-82
2023/04/13 03:57:31;;;;;;;3.08;1.65;;;8.10;99.90;;;;;;6270013;28;20200;-82
2023/04/13 04:00:34;;;;;;;5.40;1.70;;;8.10;99.90;;;;;;6268807;28;20415;-81
2023/04/13 04:03:36;;;;;;;3.50;1.38;;;8.00;99.90;;;;;;6269619;28;20055;-82
2023/04/13 04:06:38;;;;;;;5.70;1.42;;;8.10;99.90;;;;;;6265376;28;20107;-80
2023/04/13 04:09:39;;;;;;;3.83;0.95;;;8.10;99.90;;;;;;6274808;28;20403;-80
2023/04/13 04:12:41;;;;;;;7.20;1.50;;;8.10;99.90;;;;;;6279370;28;20041;-79
2023/04/13 04:15:44;;;;;;;3.05;1.30;;;8.10;99.90;;;;;;6278303;28;20041;-78
2023/04/13 04:18:46;;;;;;;5.90;1.65;;;8.20;99.90;;;;;;6275934;28;20059;-81
2023/04/13 04:21:48;;;;;;;6.03;3.13;;;8.20;99.90;;;;;;6277117;28;20052;-81
2023/04/13 04:28:07;;;;;;;5.15;1.95;;;8.20;99.90;;;;;;6278358;28;20131;-81
2023/04/13 04:31:11;;;;;;;3.08;1.80;;;8.20;99.90;;;;;;6286333;23;20418;-77
2023/04/13 04:34:12;;;;;;;5.97;1.83;;;8.20;99.90;;;;;;6232343;28;20041;-77
2023/04/13 04:37:14;;;;;;;3.65;1.27;;;8.20;99.90;;;;;;6225593;28;20070;-79
2023/04/13 04:40:16;;;;;;;3.90;2.25;;;8.30;99.90;;;;;;6227858;28;20356;-77
2023/04/13 04:43:18;;;;;;;4.10;1.35;;;8.30;99.90;;;;;;6234949;28;20045;-77
2023/04/13 04:46:24;;;;;;;6.88;1.50;;;8.30;99.90;;;;;;6228324;28;20057;-79
2023/04/13 04:49:26;;;;;;;7.43;1.75;;;8.30;99.90;;;;;;6226216;28;20132;-77
2023/04/13 04:52:28;;;;;;;2.63;1.35;;;8.30;99.90;;;;;;6236002;28;20122;-78
2023/04/13 04:55:30;;;;;;;4.35;1.52;;;8.30;99.90;;;;;;6222287;28;20042;-77
2023/04/13 04:58:31;;;;;;;16.33;3.17;;;8.30;99.90;;;;;;6220361;28;20049;-77
2023/04/13 05:01:35;;;;;;;4.70;1.90;;;8.30;99.90;;;;;;6238385;28;20132;-78
2023/04/13 05:04:38;;;;;;;3.78;1.50;;;8.30;99.90;;;;;;6237912;28;20044;-78
2023/04/13 05:07:40;;;;;;;10.18;2.20;;;8.30;99.90;;;;;;6226922;28;20054;-79
2023/04/13 05:10:44;;;;;;;8.73;1.50;;;8.40;99.90;;;;;;6234177;28;20504;-80
2023/04/13 05:13:46;;;;;;;6.90;1.92;;;8.40;99.90;;;;;;6229533;28;20056;-83
2023/04/13 05:16:50;;;;;;;5.75;2.22;;;8.40;99.90;;;;;;6227700;28;20046;-80
2023/04/13 05:19:52;;;;;;;4.88;1.48;;;8.40;99.90;;;;;;6221159;28;20054;-78
2023/04/13 05:22:53;;;;;;;6.57;1.55;;;8.40;99.90;;;;;;6242135;28;20518;-77
2023/04/13 05:25:56;;;;;;;5.93;1.70;;;8.50;99.90;;;;;;6219299;28;20455;-77
2023/04/13 05:28:58;;;;;;;2.67;1.65;;;8.40;99.90;;;;;;6230971;28;20169;-77
2023/04/13 05:32:01;;;;;;;2.55;1.70;;;8.50;99.90;;;;;;6234107;28;20044;-77
2023/04/13 05:35:04;;;;;;;15.10;2.95;;;8.50;99.90;;;;;;6241031;28;20758;-77
2023/04/13 05:38:06;;;;;;;4.47;2.08;;;8.50;99.90;;;;;;6229946;28;20053;-77
2023/04/13 05:41:09;;;;;;;8.05;3.55;;;8.50;99.90;;;;;;6232450;28;20076;-76
2023/04/13 05:44:10;;;;;;;6.60;1.88;;;8.50;99.90;;;;;;6233579;28;20439;-76
2023/04/13 05:47:13;;;;;;;3.13;1.48;;;8.50;99.90;;;;;;6234368;28;20046;-80
2023/04/13 05:50:15;;;;;;;8.18;1.50;;;8.50;99.90;;;;;;6227188;28;20407;-81
2023/04/13 05:53:17;;;;;;;7.55;1.60;;;8.50;99.90;;;;;;6234098;28;20057;-77
2023/04/13 05:56:18;;;;;;;8.63;1.65;;;8.50;99.90;;;;;;6224640;28;20408;-77
2023/04/13 05:59:20;;;;;;;11.07;2.10;;;8.50;99.90;;;;;;6216057;28;20411;-77
2023/04/13 06:02:25;;;;;;;6.25;2.28;;;8.60;99.90;;;;;;6230427;28;22379;-78
2023/04/13 06:05:27;;;;;;;7.28;2.22;;;8.60;99.90;;;;;;6225291;28;20065;-77
2023/04/13 06:08:31;;;;;;;2.30;1.67;;;8.60;99.90;;;;;;6230782;28;20054;-79
2023/04/13 06:11:33;;;;;;;4.53;2.33;;;8.60;99.90;;;;;;6228173;28;20172;-82
2023/04/13 06:14:34;;;;;;;4.82;1.70;;;8.60;99.90;;;;;;6233781;28;20045;-78
2023/04/13 06:17:37;;;;;;;7.88;1.45;;;8.60;99.90;;;;;;6233342;28;20056;-77
2023/04/13 06:20:39;;;;;;;8.88;1.85;;;8.60;99.90;;;;;;6231941;28;20072;-77
2023/04/13 06:23:41;;;;;;;5.75;1.65;;;8.60;99.90;;;;;;6228040;28;20046;-78
2023/04/13 06:26:42;;;;;;;3.88;2.22;;;8.60;99.90;;;;;;6241824;28;20049;-80
2023/04/13 06:29:44;;;;;;;7.00;2.30;;;8.60;99.90;;;;;;6238656;28;20049;-77
2023/04/13 06:32:47;;;;;;;5.97;1.80;;;8.60;99.90;;;;;;6221237;28;20045;-78
2023/04/13 06:35:50;;;;;;;5.28;1.50;;;8.70;99.90;;;;;;6228367;28;20046;-78
2023/04/13 06:38:53;;;;;;;4.35;1.70;;;8.70;99.90;;;;;;6223069;28;20492;-77
2023/04/13 06:41:55;;;;;;;4.93;1.67;;;8.80;99.90;;;;;;6240711;28;20050;-77
2023/04/13 06:44:56;;;;;;;3.78;1.88;;;8.80;99.90;;;;;;6237769;28;20069;-77
2023/04/13 06:48:00;;;;;;;3.00;1.60;;;8.90;99.90;;;;;;6238391;28;20049;-81
2023/04/13 06:51:01;;;;;;;5.45;1.63;;;8.90;99.90;;;;;;6234589;28;20054;-78
2023/04/13 06:54:03;;;;;;;8.93;2.05;;;9.00;99.90;;;;;;6229004;28;20452;-77
2023/04/13 06:57:05;;;;;;;7.18;3.33;;;9.10;99.90;;;;;;6236351;28;20045;-77
2023/04/13 07:00:08;;;;;;;6.95;1.65;;;9.20;99.90;;;;;;6240564;28;20176;-78
2023/04/13 07:03:11;;;;;;;3.80;1.50;;;9.30;99.90;;;;;;6241732;28;20045;-79
2023/04/13 07:06:13;;;;;;;4.70;2.22;;;9.40;99.90;;;;;;6235160;28;20049;-77
2023/04/13 07:09:15;;;;;;;11.40;2.30;;;9.50;99.90;;;;;;6234771;28;20042;-78
2023/04/13 07:12:17;;;;;;;4.50;2.28;;;9.40;99.90;;;;;;6228313;28;20049;-78
2023/04/13 07:15:19;;;;;;;6.28;2.00;;;9.50;99.90;;;;;;6236208;28;20050;-78
2023/04/13 07:18:22;;;;;;;3.90;1.50;;;9.60;99.90;;;;;;6235101;28;20439;-78
2023/04/13 07:21:23;;;;;;;6.95;4.40;;;10.20;99.90;;;;;;6228945;28;20407;-78
2023/04/13 07:24:26;;;;;;;6.40;2.05;;;11.30;99.90;;;;;;6236888;28;22937;-79
2023/04/13 07:27:27;;;;;;;9.68;2.00;;;12.00;99.90;;;;;;6222955;28;20172;-79
2023/04/13 07:30:29;;;;;;;3.75;1.65;;;12.10;99.90;;;;;;6233520;28;20052;-80
2023/04/13 07:33:32;;;;;;;2.50;1.52;;;12.00;99.90;;;;;;6234309;28;20120;-78
2023/04/13 07:36:34;;;;;;;12.15;2.25;;;12.20;99.90;;;;;;6239852;28;20056;-81
2023/04/13 07:39:36;;;;;;;4.97;1.58;;;12.50;99.90;;;;;;6209413;28;20053;-79
2023/04/13 07:42:37;;;;;;;9.38;2.28;;;12.60;99.90;;;;;;6232158;28;20050;-78
2023/04/13 07:45:41;;;;;;;6.97;3.65;;;12.90;99.90;;;;;;6236750;28;20061;-79
2023/04/13 07:48:44;;;;;;;14.02;4.85;;;13.40;99.90;;;;;;6248091;28;20041;-78
2023/04/13 07:51:46;;;;;;;7.22;1.73;;;13.60;99.90;;;;;;6245405;28;20144;-82
2023/04/13 07:54:48;;;;;;;5.95;2.55;;;13.50;99.90;;;;;;6246516;28;20054;-80
2023/04/13 07:57:49;;;;;;;6.47;2.80;;;13.00;99.90;;;;;;6250026;28;20054;-79
2023/04/13 08:00:51;;;;;;;7.22;1.63;;;12.60;99.90;;;;;;6244435;28;20049;-79
2023/04/13 08:03:55;;;;;;;9.65;2.58;;;12.40;99.90;;;;;;6244760;28;20049;-80
2023/04/13 08:06:57;;;;;;;5.93;1.85;;;12.20;99.90;;;;;;6245685;28;20044;-79
2023/04/13 08:10:02;;;;;;;13.32;2.30;;;12.20;99.90;;;;;;6246680;28;20416;-82
2023/04/13 08:13:04;;;;;;;9.73;1.90;;;11.90;99.90;;;;;;6246671;28;20060;-78
2023/04/13 08:16:07;;;;;;;7.38;3.00;;;11.60;99.90;;;;;;6241823;28;20072;-79
2023/04/13 08:19:11;;;;;;;8.90;3.20;;;11.10;99.90;;;;;;6241184;28;20064;-79
2023/04/13 08:22:12;;;;;;;10.38;2.50;;;10.60;99.90;;;;;;6245478;28;20082;-77
2023/04/13 08:25:14;;;;;;;13.43;2.35;;;10.20;99.90;;;;;;6245477;28;20045;-78
2023/04/13 08:28:16;;;;;;;15.43;2.92;;;9.70;99.90;;;;;;6240839;28;20072;-77
2023/04/13 08:31:17;;;;;;;16.95;5.78;;;9.20;99.90;;;;;;6244894;28;20563;-78
2023/04/13 08:34:20;;;;;;;20.80;5.22;;;9.00;99.90;;;;;;6242157;28;20052;-77
2023/04/13 08:37:23;;;;;;;8.77;2.83;;;8.90;99.90;;;;;;6241968;28;20053;-77
2023/04/13 08:40:26;;;;;;;6.10;2.60;;;8.90;99.90;;;;;;6241138;28;20046;-77
2023/04/13 08:43:28;;;;;;;6.63;2.70;;;8.80;99.90;;;;;;6244773;28;20171;-77
2023/04/13 08:46:30;;;;;;;8.10;3.28;;;8.60;99.90;;;;;;6242711;28;20071;-77
2023/04/13 08:49:36;;;;;;;17.08;4.07;;;8.60;99.90;;;;;;6243821;28;20045;-77
2023/04/13 08:52:39;;;;;;;3.75;2.20;;;8.60;99.90;;;;;;6241279;28;20403;-76
2023/04/13 08:55:44;;;;;;;13.25;3.95;;;8.50;99.90;;;;;;6235246;28;20041;-77
2023/04/13 08:58:48;;;;;;;9.80;4.05;;;8.50;99.90;;;;;;6220311;28;20046;-76
2023/04/13 09:01:51;;;;;;;9.77;2.63;;;8.60;99.90;;;;;;6234984;28;20068;-76
2023/04/13 09:04:58;;;;;;;14.73;2.72;;;8.80;99.90;;;;;;6232498;28;20044;-80
2023/04/13 09:08:03;;;;;;;11.73;3.25;;;9.00;99.90;;;;;;6238580;28;20045;-76
2023/04/13 09:11:05;;;;;;;5.65;3.00;;;9.20;99.90;;;;;;6238363;28;20065;-77
2023/04/13 09:14:08;;;;;;;7.90;1.98;;;9.30;99.90;;;;;;6236031;28;20419;-78
2023/04/13 09:17:10;;;;;;;6.40;1.70;;;9.50;99.90;;;;;;6244877;28;20064;-76
2023/04/13 09:20:16;;;;;;;8.60;2.42;;;9.90;99.90;;;;;;6231684;28;20389;-77
2023/04/13 09:23:18;;;;;;;7.80;2.25;;;10.30;99.90;;;;;;6235018;28;20046;-76
2023/04/13 09:26:20;;;;;;;7.65;2.58;;;10.50;99.90;;;;;;6238071;28;20068;-77
2023/04/13 09:29:22;;;;;;;5.90;2.55;;;10.50;99.90;;;;;;6242440;28;20502;-77
2023/04/13 09:32:26;;;;;;;11.55;3.28;;;10.60;99.90;;;;;;6245431;28;20169;-76
2023/04/13 09:35:31;;;;;;;11.27;7.03;;;10.70;99.90;;;;;;6239357;28;20045;-76
2023/04/13 09:38:33;;;;;;;10.80;3.65;;;10.70;99.90;;;;;;6232101;28;20049;-76
2023/04/13 09:41:36;;;;;;;7.95;2.90;;;10.70;99.90;;;;;;6239113;28;20056;-77
2023/04/13 09:44:37;;;;;;;6.43;3.38;;;10.90;99.90;;;;;;6234674;28;20045;-77
2023/04/13 09:47:40;;;;;;;7.85;2.63;;;11.10;99.90;;;;;;6235086;28;20045;-77
2023/04/13 09:50:44;;;;;;;9.60;2.55;;;11.50;99.90;;;;;;6225043;28;20050;-78
2023/04/13 09:53:47;;;;;;;7.50;1.92;;;11.60;99.90;;;;;;6232997;28;20045;-77
2023/04/13 09:56:51;;;;;;;11.00;2.53;;;11.30;99.90;;;;;;6238385;28;20046;-78
2023/04/13 09:59:54;;;;;;;5.32;2.10;;;11.30;99.90;;;;;;6237544;28;20049;-77
2023/04/13 10:03:00;;;;;;;7.00;2.25;;;11.50;99.90;;;;;;6234629;28;20171;-77
2023/04/13 10:06:05;;;;;;;7.97;2.20;;;11.70;99.90;;;;;;6234296;28;20431;-77
2023/04/13 10:09:07;;;;;;;7.18;2.33;;;11.80;99.90;;;;;;6221660;28;20054;-79
2023/04/13 10:12:10;;;;;;;5.05;1.90;;;11.90;99.90;;;;;;6234178;28;20481;-78
2023/04/13 10:15:29;;;;;;;11.63;3.33;;;12.10;99.90;;;;;;6232675;28;20041;-77
2023/04/13 10:18:42;;;;;;;7.75;2.30;;;12.40;99.90;;;;;;6229438;28;20137;-77
2023/04/13 10:21:48;;;;;;;10.40;2.05;;;12.80;99.90;;;;;;6230269;28;20136;-77
2023/04/13 10:24:51;;;;;;;12.80;2.55;;;13.20;99.90;;;;;;6226203;28;20042;-78
2023/04/13 10:27:57;;;;;;;7.90;3.20;;;12.80;99.90;;;;;;6237013;28;20085;-78
2023/04/13 10:31:01;;;;;;;10.93;2.80;;;12.30;99.90;;;;;;6233187;28;20053;-77
2023/04/13 10:34:03;;;;;;;8.13;2.22;;;12.00;99.90;;;;;;6294590;22;20415;-79
2023/04/13 10:37:18;;;;;;;3.70;1.67;;;11.80;99.90;;;;;;6295070;28;20060;-80
2023/04/13 10:40:19;;;;;;;7.03;2.10;;;11.60;99.90;;;;;;6299910;28;20099;-82
2023/04/13 10:43:28;;;;;;;7.85;2.00;;;11.50;99.90;;;;;;6274930;28;20044;-80
2023/04/13 10:46:30;;;;;;;5.45;1.88;;;11.60;99.90;;;;;;6266586;28;20056;-80
2023/04/13 10:49:32;;;;;;;6.90;2.20;;;11.60;99.90;;;;;;6270286;28;20157;-81
2023/04/13 10:52:35;;;;;;;4.78;1.92;;;11.70;99.90;;;;;;6266611;28;20049;-82
2023/04/13 10:55:37;;;;;;;5.60;2.03;;;12.30;99.90;;;;;;6261009;28;20049;-80
2023/04/13 10:58:39;;;;;;;12.10;2.97;;;13.00;99.90;;;;;;6267547;28;20060;-81
2023/04/13 11:01:42;;;;;;;4.07;1.45;;;13.30;99.90;;;;;;6272689;28;20045;-81
2023/04/13 11:04:46;;;;;;;5.97;2.85;;;13.50;99.90;;;;;;6268030;28;20055;-81
2023/04/13 11:07:52;;;;;;;8.45;2.30;;;13.50;99.90;;;;;;6271502;28;20045;-82
2023/04/13 11:10:55;;;;;;;5.22;2.00;;;13.80;99.90;;;;;;6267860;28;20049;-79
2023/04/13 11:13:57;;;;;;;9.98;2.15;;;13.90;99.90;;;;;;6267302;28;20057;-81
2023/04/13 11:16:59;;;;;;;5.55;2.13;;;13.80;99.90;;;;;;6267192;28;20037;-81
2023/04/13 11:20:01;;;;;;;9.60;3.63;;;13.60;99.90;;;;;;6277990;28;20045;-82
2023/04/13 11:23:07;;;;;;;3.35;1.48;;;13.80;99.90;;;;;;6280173;28;20049;-83
2023/04/13 11:26:09;;;;;;;7.00;1.58;;;13.80;99.90;;;;;;6280727;28;20055;-82
2023/04/13 11:29:17;;;;;;;2.03;1.27;;;13.80;99.90;;;;;;6279097;28;20044;-83
2023/04/13 11:32:19;;;;;;;;;;;13.70;99.90;;;;;;6284270;28;20052;-84
2023/04/13 11:35:22;;;;;;;3.65;1.52;;;13.60;99.90;;;;;;6284039;28;19988;-82
2023/04/13 11:38:25;;;;;;;3.83;2.00;;;13.70;99.90;;;;;;6280240;28;20057;-83
2023/04/13 11:41:31;;;;;;;8.40;2.10;;;13.80;99.90;;;;;;6272422;28;20049;-82
2023/04/13 11:44:34;;;;;;;12.10;3.92;;;13.80;99.90;;;;;;6266905;28;20138;-84
2023/04/13 11:47:36;;;;;;;10.80;1.70;;;13.70;99.90;;;;;;6278483;28;20069;-82
2023/04/13 11:50:38;;;;;;;4.38;1.60;;;14.00;99.90;;;;;;6281623;28;20123;-82
2023/04/13 11:53:42;;;;;;;5.30;1.75;;;14.50;99.90;;;;;;6279354;28;21099;-80
2023/04/13 11:56:44;;;;;;;4.38;1.65;;;14.90;99.90;;;;;;6281367;28;20045;-80
2023/04/13 11:59:47;;;;;;;9.23;2.13;;;14.90;99.90;;;;;;6278218;28;20056;-84
2023/04/13 12:02:51;;;;;;;7.45;1.90;;;14.80;99.90;;;;;;6281743;28;20064;-82
2023/04/13 12:06:00;;;;;;;4.68;1.95;;;15.00;99.90;;;;;;6287294;28;20113;-83
2023/04/13 12:09:04;;;;;;;5.85;2.75;;;15.40;99.90;;;;;;6285923;28;20048;-83
2023/04/13 12:12:06;;;;;;;6.60;2.05;;;15.20;99.90;;;;;;6286064;28;20114;-82
2023/04/13 12:15:09;;;;;;;6.03;2.25;;;15.10;99.90;;;;;;6284467;28;20067;-81
2023/04/13 12:18:13;;;;;;;7.93;1.80;;;15.10;99.90;;;;;;6282096;28;20418;-82
2023/04/13 12:21:16;;;;;;;5.70;2.47;;;15.10;99.90;;;;;;6278319;28;20112;-83
2023/04/13 12:24:19;;;;;;;8.18;3.83;;;14.70;99.90;;;;;;6283295;28;20055;-80
2023/04/13 12:27:21;;;;;;;9.93;5.65;;;14.20;99.90;;;;;;6282776;28;20062;-83
2023/04/13 12:30:24;;;;;;;4.90;1.63;;;13.50;99.90;;;;;;6276486;28;20087;-79
2023/04/13 12:33:26;;;;;;;5.28;1.50;;;13.00;99.90;;;;;;6277179;28;20643;-80
2023/04/13 12:36:30;;;;;;;3.90;1.65;;;12.50;99.90;;;;;;6282534;28;20049;-83
2023/04/13 12:39:33;;;;;;;3.67;1.58;;;12.20;99.90;;;;;;6273823;28;20135;-83
2023/04/13 12:42:34;;;;;;;5.47;2.40;;;12.20;99.90;;;;;;6281484;28;20051;-82
2023/04/13 12:45:36;;;;;;;2.75;1.83;;;12.40;99.90;;;;;;6278741;28;20045;-82
2023/04/13 12:48:38;;;;;;;4.07;1.50;;;12.90;99.90;;;;;;6279974;28;20053;-83
2023/04/13 12:51:39;;;;;;;5.50;1.77;;;13.50;99.90;;;;;;6283651;28;20064;-84
2023/04/13 12:54:42;;;;;;;4.57;1.67;;;13.70;99.90;;;;;;6273602;28;20041;-83
2023/04/13 12:57:44;;;;;;;7.32;1.55;;;14.00;99.90;;;;;;6279264;28;20040;-81
2023/04/13 13:00:46;;;;;;;3.17;1.50;;;14.30;99.90;;;;;;6273764;28;20045;-83
2023/04/13 13:03:47;;;;;;;6.28;1.77;;;14.80;99.90;;;;;;6272057;28;20056;-84
2023/04/13 13:06:49;;;;;;;5.47;3.05;;;15.40;99.90;;;;;;6270901;28;20045;-79
2023/04/13 13:09:52;;;;;;;5.45;1.60;;;15.80;99.90;;;;;;6267249;28;20398;-81
2023/04/13 13:12:54;;;;;;;4.75;1.40;;;16.30;99.90;;;;;;6261282;28;20104;-80
2023/04/13 13:15:56;;;;;;;5.43;2.28;;;16.70;99.90;;;;;;6262225;28;20064;-82
2023/04/13 13:18:57;;;;;;;5.47;1.75;;;16.90;99.90;;;;;;6281085;28;20049;-81
2023/04/13 13:22:00;;;;;;;2.83;1.58;;;17.20;99.90;;;;;;6281792;28;20045;-81
2023/04/13 13:25:03;;;;;;;6.32;1.55;;;17.60;99.90;;;;;;6262980;28;20041;-81
2023/04/13 13:28:07;;;;;;;3.65;1.63;;;17.70;99.90;;;;;;6262566;28;20057;-81
2023/04/13 13:31:09;;;;;;;4.82;2.10;;;17.90;99.90;;;;;;6268106;28;20057;-82
2023/04/13 13:34:11;;;;;;;4.20;1.58;;;17.90;98.60;;;;;;6258775;28;20107;-80
2023/04/13 13:37:13;;;;;;;3.55;1.13;;;17.60;98.10;;;;;;6263542;28;20045;-80
2023/04/13 13:40:16;;;;;;;4.15;2.00;;;17.80;97.80;;;;;;6270744;28;20435;-86
2023/04/13 13:43:20;;;;;;;7.60;2.08;;;17.70;96.60;;;;;;6274712;28;20051;-83
2023/04/13 13:46:21;;;;;;;10.07;8.35;;;17.10;95.60;;;;;;6270701;28;20068;-81
2023/04/13 13:49:23;;;;;;;4.68;2.45;;;16.60;95.40;;;;;;6274139;28;20045;-82
2023/04/13 13:52:25;;;;;;;8.35;2.33;;;16.10;96.00;;;;;;6271584;28;20525;-82
2023/04/13 13:55:28;;;;;;;5.85;2.05;;;15.50;96.70;;;;;;6266938;28;20060;-81
2023/04/13 13:58:30;;;;;;;9.95;5.10;;;15.20;97.10;;;;;;6269771;28;20044;-80
2023/04/13 14:01:31;;;;;;;4.05;1.40;;;14.90;97.80;;;;;;6267775;28;20056;-80
2023/04/13 14:04:33;;;;;;;4.32;2.42;;;15.10;98.30;;;;;;6269263;28;20399;-82
2023/04/13 14:07:35;;;;;;;5.47;2.10;;;15.30;97.30;;;;;;6266009;28;20055;-79
2023/04/13 14:10:40;;;;;;;7.75;2.50;;;15.60;96.00;;;;;;6266081;28;20045;-79
2023/04/13 14:13:42;;;;;;;7.20;2.35;;;15.80;95.20;;;;;;6271199;28;21226;-80
2023/04/13 14:16:43;;;;;;;3.58;1.42;;;15.90;94.50;;;;;;6266211;28;20494;-80
2023/04/13 14:19:45;;;;;;;5.32;1.42;;;16.00;93.70;;;;;;6258054;28;20048;-82
2023/04/13 14:22:47;;;;;;;6.22;1.77;;;16.00;93.00;;;;;;6261635;28;20098;-81
2023/04/13 14:25:50;;;;;;;2.78;1.13;;;16.10;92.00;;;;;;6262381;28;20053;-81
2023/04/13 14:28:52;;;;;;;6.85;1.60;;;15.90;91.50;;;;;;6265072;28;20060;-80
2023/04/13 14:31:53;;;;;;;4.07;1.33;;;16.10;91.00;;;;;;6266863;28;20140;-81
2023/04/13 14:34:58;;;;;;;7.40;2.40;;;16.20;90.70;;;;;;6260492;28;20060;-82
2023/04/13 14:38:00;;;;;;;7.82;2.97;;;16.50;90.80;;;;;;6269439;28;20052;-82
2023/04/13 14:41:03;;;;;;;8.82;2.88;;;16.80;89.70;;;;;;6261001;28;20380;-82
2023/04/13 14:44:05;;;;;;;7.88;2.13;;;16.90;89.30;;;;;;6269951;28;20049;-81
2023/04/13 14:47:09;;;;;;;4.55;1.50;;;16.90;87.40;;;;;;6276230;28;20037;-81
2023/04/13 14:50:13;;;;;;;5.65;2.83;;;16.80;87.80;;;;;;6277237;28;20056;-80
2023/04/13 14:53:16;;;;;;;6.38;2.80;;;17.00;87.20;;;;;;6273978;28;20056;-81
2023/04/13 14:56:19;;;;;;;5.88;1.77;;;17.50;86.50;;;;;;6274621;28;20052;-82
2023/04/13 14:59:21;;;;;;;6.25;1.90;;;17.80;83.00;;;;;;6277243;28;20052;-82
2023/04/13 15:02:22;;;;;;;5.28;1.52;;;18.00;82.60;;;;;;6276705;28;23001;-81
2023/04/13 15:05:24;;;;;;;3.60;1.50;;;17.90;80.00;;;;;;6280552;28;20065;-81
2023/04/13 15:11:55;;;;;;;4.55;3.13;;;17.60;79.40;;;;;;6273692;28;20044;-83
2023/04/13 15:14:57;;;;;;;6.82;1.65;;;17.60;79.10;;;;;;6286804;28;20134;-84
2023/04/13 15:18:09;;;;;;;6.10;1.75;;;17.30;80.30;;;;;;6281735;28;20072;-83
2023/04/13 15:21:11;;;;;;;9.07;4.38;;;17.20;80.70;;;;;;6279459;28;20041;-82
2023/04/13 15:24:16;;;;;;;3.58;2.13;;;17.10;80.50;;;;;;6279022;28;20057;-83
2023/04/13 15:27:38;;;;;;;3.60;1.60;;;16.90;80.40;;;;;;6270612;28;20046;-83
2023/04/13 15:42:44;;;;;;;2.22;1.05;;;15.20;84.00;;;;;;6239750;28;20041;-82
2023/04/13 15:52:45;;;;;;;4.82;1.30;;;14.30;86.70;;;;;;6275488;28;20075;-82
2023/04/13 15:55:50;;;;;;;2.00;1.52;;;13.70;89.30;;;;;;6276923;28;20115;-81
2023/04/13 15:59:46;;;;;;;5.00;1.45;;;13.00;90.40;;;;;;6276132;28;20543;-82
2023/04/13 16:02:49;;;;;;;6.50;2.28;;;12.40;91.60;;;;;;6250694;28;20041;-81
2023/04/13 16:05:51;;;;;;;5.55;1.75;;;11.80;92.50;;;;;;6269026;28;20045;-81
2023/04/13 16:08:55;;;;;;;3.45;1.70;;;11.40;93.90;;;;;;6264327;28;20053;-81
2023/04/13 16:11:57;;;;;;;3.03;2.00;;;11.10;95.30;;;;;;6272650;28;20371;-82
2023/04/13 16:14:59;;;;;;;5.43;2.15;;;11.00;96.30;;;;;;6276205;28;20049;-83
2023/04/13 16:18:02;;;;;;;6.53;2.60;;;11.00;97.10;;;;;;6277726;28;20044;-83
2023/04/13 16:21:04;;;;;;;7.57;2.80;;;11.00;98.00;;;;;;6276207;28;20048;-82
2023/04/13 16:24:07;;;;;;;12.20;1.88;;;11.00;98.60;;;;;;6268642;28;20061;-83